Airfield :
LOGIN :

Register | Disclaimer

   EN    FR    IT 

 










Legend :    VFR   Marginal VFR   IFR   Intensive IFR   Very Intensive IFR
Visi :
Ceiling :
>= 8 km
>= 3000ft
5 to 8 km
1000 to 3000 ft
1500m to 5 km
500 to 1000 ft
800 to 1500m
200 to 500 ft
< 800m
< 200 ft
Symbols :   Thunderstorms  Fog  Heavy snow  Heavy precipitations  Wind > 20 kt
SIGMETs :     Misc.  Thunderstorms  Icing  Turbulence  Mountain Waves  Volcanic Ashes







- Airport Elevation : 235 ft
- IATA code : BZG


EPBY - Bydgoszcz

CURRENT METAR :
  • 201500Z 30010KT CAVOK 11/05 Q1025

EXPIRED METARs :
  • 201430Z 30011KT CAVOK 11/05 Q1025
  • 201400Z 31013KT 280V340 9999 FEW045 12/05 Q1024
  • 201330Z 33014KT 300V360 9999 FEW038 12/05 Q1024
  • 201300Z 33010KT 9999 FEW034 SCT040 12/04 Q1024
  • 201230Z 30009KT 9999 FEW034TCU 12/04 Q1024

TAF TAF EPBY
Valid from the 20 at 12:00 until the 21 at 12:00 UTC


201130Z 2012/2112 30010KT 9999 SCT025
TEMPO 2013/2021 -SHRA BKN014 BKN025TCU
BECMG 2021/2023 VRB02KT 4000 BR BKN010
TEMPO 2023/2108 2000 BR BKN005
PROB40 2100/2106 0800 FG BKN002
BECMG 2108/2111 8000 BKN020
No reported NOTAMs for that airfield.



MET'MAP, your aeronautical weather chart ! - Copyright ORBIFLY December 2007 - Disclaimer

ORBIFLY MET'MAP TEAM :

Programming & Development : Alexandra Zaïnal
Concept & Development : Baudouin d'Aumeries
Co-Development & Prog : Marc-Olivier Méhu
Technical & hardware support : Manuel Goepfert

Contact : metmap@orbifly.com




SOURCES & CREDITS :

   NOAA